createdAt,value
2017-11-03T00:00:26.198Z,96.94
2017-11-03T00:01:26.524Z,97.13
2017-11-03T00:02:26.505Z,97.22
2017-11-03T00:03:26.495Z,97.22
2017-11-03T00:04:26.166Z,96.94
2017-11-03T00:05:26.488Z,97.03
2017-11-03T00:06:26.472Z,97.13
2017-11-03T00:07:26.461Z,97.22
2017-11-03T00:08:26.131Z,97.13
2017-11-03T00:09:26.120Z,97.13
2017-11-03T00:10:26.436Z,96.65
2017-11-03T00:11:26.431Z,97.13
2017-11-03T00:12:26.098Z,97.13
2017-11-03T00:13:26.087Z,97.32
2017-11-03T00:14:26.076Z,96.94
2017-11-03T00:15:26.069Z,97.13
2017-11-03T00:16:26.060Z,97.22
2017-11-03T00:17:26.373Z,97.22
2017-11-03T00:18:26.041Z,96.94
2017-11-03T00:19:26.035Z,97.22
2017-11-03T00:20:26.024Z,97.13
2017-11-03T00:21:26.017Z,96.94
2017-11-03T00:22:26.009Z,97.22
2017-11-03T00:23:26.328Z,97.13
2017-11-03T00:24:26.314Z,96.36
2017-11-03T00:25:25.980Z,96.36
2017-11-03T00:26:25.977Z,97.03
2017-11-03T00:27:26.295Z,96.65
2017-11-03T00:28:26.280Z,96.08
2017-11-03T00:29:26.277Z,96.27
2017-11-03T00:30:26.262Z,96.75
2017-11-03T00:31:25.928Z,96.94
2017-11-03T00:32:26.246Z,97.03
2017-11-03T00:33:26.235Z,96.36
2017-11-03T00:34:26.233Z,96.36
2017-11-03T00:35:26.220Z,96.94
2017-11-03T00:36:26.209Z,96.75
2017-11-03T00:37:26.200Z,96.65
2017-11-03T00:38:26.197Z,96.84
2017-11-03T00:39:26.189Z,96.84
2017-11-03T00:40:26.173Z,97.03
2017-11-03T00:41:26.164Z,96.36
2017-11-03T00:42:26.159Z,96.94
2017-11-03T00:43:26.146Z,96.56
2017-11-03T00:44:26.141Z,96.84
2017-11-03T00:45:26.140Z,96.84
2017-11-03T00:46:26.122Z,96.75
2017-11-03T00:47:26.117Z,96.56
2017-11-03T00:48:26.111Z,96.94
2017-11-03T00:49:26.093Z,96.84
2017-11-03T00:50:26.090Z,96.84
2017-11-03T00:51:25.757Z,96.46
2017-11-03T00:52:26.072Z,96.84
2017-11-03T00:53:26.061Z,96.27
2017-11-03T00:54:26.057Z,96.84
2017-11-03T00:55:26.045Z,96.46
2017-11-03T00:56:26.035Z,96.84
2017-11-03T00:57:26.029Z,96.65
2017-11-03T00:58:26.018Z,96.56
2017-11-03T00:59:26.007Z,96.46
2017-11-03T01:00:26.009Z,96.27
2017-11-03T01:01:25.671Z,96.84
2017-11-03T01:02:25.982Z,96.94
2017-11-03T01:03:25.972Z,96.84
2017-11-03T01:04:25.963Z,96.56
2017-11-03T01:05:25.956Z,97.61
2017-11-03T01:06:25.950Z,96.56
2017-11-03T01:07:25.944Z,96.94
2017-11-03T01:08:25.931Z,96.75
2017-11-03T01:09:25.920Z,97.41
2017-11-03T01:10:25.909Z,97.32
2017-11-03T01:11:25.912Z,97.03
2017-11-03T01:12:25.892Z,97.03
2017-11-03T01:13:25.564Z,96.75
2017-11-03T01:14:25.882Z,97.13
2017-11-03T01:15:25.867Z,97.03
2017-11-03T01:16:25.865Z,96.75
2017-11-03T01:17:25.852Z,96.56
2017-11-03T01:18:25.844Z,97.41
2017-11-03T01:19:25.833Z,97.41
2017-11-03T01:20:25.824Z,97.03
2017-11-03T01:21:25.816Z,97.32
2017-11-03T01:22:25.483Z,97.32
2017-11-03T01:23:25.477Z,97.32
2017-11-03T01:24:25.792Z,97.61
2017-11-03T01:25:25.782Z,97.03
2017-11-03T01:26:25.776Z,96.65
2017-11-03T01:27:25.763Z,96.84
2017-11-03T01:28:25.756Z,96.75
2017-11-03T01:29:25.426Z,97.7
2017-11-03T01:30:25.746Z,96.56
2017-11-03T01:31:25.728Z,96.75
2017-11-03T01:32:25.720Z,96.84
2017-11-03T01:33:25.712Z,96.75
2017-11-03T01:34:25.700Z,96.75
2017-11-03T01:35:25.693Z,97.32
2017-11-03T01:36:25.684Z,97.22
2017-11-03T01:37:25.672Z,97.41
2017-11-03T01:38:25.678Z,97.41
2017-11-03T01:39:25.657Z,97.13
2017-11-03T01:40:25.653Z,97.32
2017-11-03T01:41:25.641Z,97.41
2017-11-03T01:42:25.307Z,97.22
2017-11-03T01:43:25.628Z,96.75
2017-11-03T01:44:25.613Z,96.75
2017-11-03T01:45:25.608Z,96.84
2017-11-03T01:46:25.604Z,96.65
2017-11-03T01:47:25.594Z,96.84
2017-11-03T01:48:25.582Z,96.46
2017-11-03T01:49:25.248Z,96.65
2017-11-03T01:50:25.563Z,97.41
2017-11-03T01:51:25.554Z,96.65
2017-11-03T01:52:25.544Z,96.75
2017-11-03T01:53:25.535Z,96.84
2017-11-03T01:54:25.538Z,96.84
2017-11-03T01:55:25.519Z,96.56
2017-11-03T01:56:25.513Z,96.75
2017-11-03T01:57:25.500Z,96.84
2017-11-03T01:58:25.493Z,96.84
2017-11-03T01:59:25.482Z,96.56
2017-11-03T02:00:25.478Z,97.51
2017-11-03T02:01:25.465Z,97.61
2017-11-03T02:02:25.455Z,97.41
2017-11-03T02:03:25.452Z,96.75
2017-11-03T02:04:25.446Z,97.61
2017-11-03T02:05:25.431Z,97.61
2017-11-03T02:06:25.420Z,96.65
2017-11-03T02:07:25.089Z,96.36
2017-11-03T02:08:25.404Z,96.84
2017-11-03T02:09:25.405Z,96.84
2017-11-03T02:10:25.386Z,96.94
2017-11-03T02:11:25.055Z,96.56
2017-11-03T02:12:25.368Z,96.65
2017-11-03T02:13:25.359Z,96.56
2017-11-03T02:14:25.356Z,96.84
2017-11-03T02:15:25.346Z,96.84
2017-11-03T02:16:25.018Z,96.94
2017-11-03T02:17:25.328Z,96.65
2017-11-03T02:18:25.317Z,96.75
2017-11-03T02:19:25.310Z,96.56
2017-11-03T02:20:25.301Z,96.56
2017-11-03T02:21:25.299Z,96.56
2017-11-03T02:22:25.284Z,97.61
2017-11-03T02:23:25.273Z,97.22
2017-11-03T02:24:25.266Z,96.94
2017-11-03T02:25:25.253Z,96.84
2017-11-03T02:26:25.247Z,97.03
2017-11-03T02:27:25.239Z,96.65
2017-11-03T02:28:24.905Z,96.65
2017-11-03T02:29:24.896Z,97.51
2017-11-03T02:30:25.211Z,96.56
2017-11-03T02:31:25.215Z,97.22
2017-11-03T02:32:24.870Z,97.13
2017-11-03T02:33:25.185Z,97.13
2017-11-03T02:34:25.176Z,97.41
2017-11-03T02:35:25.169Z,97.32
2017-11-03T02:36:25.158Z,97.22
2017-11-03T02:37:25.153Z,97.32
2017-11-03T02:38:25.147Z,96.94
2017-11-03T02:39:25.133Z,96.46
2017-11-03T02:40:25.156Z,97.22
2017-11-03T02:41:25.118Z,97.32
2017-11-03T02:42:25.107Z,97.03
2017-11-03T02:43:24.774Z,97.13
2017-11-03T02:44:25.091Z,97.03
2017-11-03T02:45:25.086Z,97.03
2017-11-03T02:46:25.081Z,97.32
2017-11-03T02:47:25.077Z,96.84
2017-11-03T02:48:24.732Z,97.13
2017-11-03T02:49:25.046Z,97.03
2017-11-03T02:50:24.713Z,97.13
2017-11-03T02:51:24.704Z,97.41
2017-11-03T02:52:25.025Z,97.13
2017-11-03T02:53:25.013Z,96.94
2017-11-03T02:54:24.998Z,97.13
2017-11-03T02:55:25.003Z,97.32
2017-11-03T02:56:24.984Z,97.41
2017-11-03T02:57:24.979Z,97.41
2017-11-03T02:58:24.982Z,97.22
2017-11-03T02:59:24.959Z,97.03
2017-11-03T03:00:24.955Z,97.03
2017-11-03T03:01:24.939Z,97.22
2017-11-03T03:02:24.954Z,97.03
2017-11-03T03:03:24.923Z,97.22
2017-11-03T03:04:24.915Z,97.22
2017-11-03T03:05:24.907Z,97.22
2017-11-03T03:06:24.575Z,97.13
2017-11-03T03:07:24.888Z,97.13
2017-11-03T03:08:24.889Z,97.03
2017-11-03T03:09:24.868Z,97.13
2017-11-03T03:10:24.858Z,97.22
2017-11-03T03:11:24.855Z,97.22
2017-11-03T03:12:24.842Z,97.03
2017-11-03T03:13:24.836Z,97.03
2017-11-03T03:14:24.824Z,97.41
2017-11-03T03:15:24.818Z,97.41
2017-11-03T03:16:24.810Z,97.32
2017-11-03T03:17:24.799Z,97.41
2017-11-03T03:18:24.794Z,97.32
2017-11-03T03:19:24.780Z,97.13
2017-11-03T03:20:24.450Z,97.03
2017-11-03T03:21:24.762Z,96.84
2017-11-03T03:22:24.757Z,97.32
2017-11-03T03:23:24.749Z,97.22
2017-11-03T03:24:24.735Z,97.41
2017-11-03T03:25:24.731Z,97.22
2017-11-03T03:26:24.721Z,97.13
2017-11-03T03:27:24.710Z,97.51
2017-11-03T03:28:24.711Z,97.32
2017-11-03T03:29:24.698Z,97.22
2017-11-03T03:30:24.687Z,97.32
2017-11-03T03:31:24.675Z,97.22
2017-11-03T03:32:24.672Z,97.03
2017-11-03T03:33:24.661Z,97.13
2017-11-03T03:34:24.650Z,97.03
2017-11-03T03:35:24.645Z,97.13
2017-11-03T03:36:24.634Z,97.32
2017-11-03T03:37:24.626Z,97.13
2017-11-03T03:38:24.613Z,97.41
2017-11-03T03:39:24.606Z,97.32
2017-11-03T03:40:24.599Z,97.41
2017-11-03T03:41:24.590Z,97.51
2017-11-03T03:42:24.581Z,97.22
2017-11-03T03:43:24.571Z,97.51
2017-11-03T03:44:24.563Z,97.41
2017-11-03T03:45:24.553Z,97.22
2017-11-03T03:46:24.223Z,97.13
2017-11-03T03:47:24.544Z,97.32
2017-11-03T03:48:24.529Z,97.32
2017-11-03T03:49:24.515Z,97.41
2017-11-03T03:50:24.511Z,97.32
2017-11-03T03:51:24.503Z,97.51
2017-11-03T03:52:24.490Z,97.51
2017-11-03T03:53:24.486Z,97.32
2017-11-03T03:54:24.473Z,97.22
2017-11-03T03:55:24.466Z,97.41
2017-11-03T03:56:24.460Z,97.03
2017-11-03T03:57:24.450Z,97.13
2017-11-03T03:58:24.438Z,97.32
2017-11-03T03:59:24.430Z,97.41
2017-11-03T04:00:24.421Z,97.41
2017-11-03T04:01:24.415Z,97.41
2017-11-03T04:02:24.081Z,97.13
2017-11-03T04:03:24.394Z,97.03
2017-11-03T04:04:24.386Z,97.03
2017-11-03T04:05:24.387Z,97.13
2017-11-03T04:06:24.369Z,97.22
2017-11-03T04:07:24.361Z,97.22
2017-11-03T04:08:24.349Z,97.41
2017-11-03T04:09:24.350Z,97.32
2017-11-03T04:10:24.333Z,96.65
2017-11-03T04:11:24.003Z,97.22
2017-11-03T04:12:24.317Z,97.32
2017-11-03T04:13:24.305Z,97.22
2017-11-03T04:14:24.297Z,97.22
2017-11-03T04:15:24.290Z,97.13
2017-11-03T04:16:24.284Z,97.22
2017-11-03T04:17:24.282Z,97.22
2017-11-03T04:18:24.261Z,97.32
2017-11-03T04:19:24.260Z,97.22
2017-11-03T04:20:24.243Z,97.41
2017-11-03T04:21:23.916Z,97.03
2017-11-03T04:22:24.225Z,97.51
2017-11-03T04:23:24.224Z,97.61
2017-11-03T04:24:24.208Z,97.41
2017-11-03T04:25:24.205Z,97.22
2017-11-03T04:26:23.871Z,97.32
2017-11-03T04:27:24.183Z,97.22
2017-11-03T04:28:24.176Z,97.03
2017-11-03T04:29:24.167Z,97.22
2017-11-03T04:30:24.157Z,97.41
2017-11-03T04:31:24.155Z,96.65
2017-11-03T04:32:24.145Z,97.51
2017-11-03T04:33:24.130Z,97.22
2017-11-03T04:34:24.122Z,96.84
2017-11-03T04:35:24.114Z,96.65
2017-11-03T04:36:24.107Z,97.03
2017-11-03T04:37:23.772Z,96.65
2017-11-03T04:38:24.089Z,96.65
2017-11-03T04:39:24.081Z,97.03
2017-11-03T04:40:24.070Z,97.32
2017-11-03T04:41:24.064Z,97.32
2017-11-03T04:42:24.054Z,97.32
2017-11-03T04:43:24.043Z,97.32
2017-11-03T04:44:24.038Z,97.41
2017-11-03T04:45:24.033Z,97.41
2017-11-03T04:46:24.019Z,97.41
2017-11-03T04:47:24.016Z,97.03
2017-11-03T04:48:23.998Z,97.41
2017-11-03T04:49:23.992Z,97.13
2017-11-03T04:50:23.660Z,97.32
2017-11-03T04:51:23.652Z,97.32
2017-11-03T04:52:23.641Z,97.13
2017-11-03T04:53:23.956Z,97.22
2017-11-03T04:54:23.948Z,97.41
2017-11-03T04:55:23.937Z,97.41
2017-11-03T04:56:23.931Z,97.22
2017-11-03T04:57:23.923Z,97.22
2017-11-03T04:58:23.913Z,97.32
2017-11-03T04:59:23.908Z,97.32
2017-11-03T05:00:23.893Z,97.22
2017-11-03T05:01:23.890Z,97.32
2017-11-03T05:02:23.880Z,97.03
2017-11-03T05:03:23.875Z,97.22
2017-11-03T05:04:23.861Z,97.22
2017-11-03T05:05:23.849Z,97.13
2017-11-03T05:06:23.520Z,97.13
2017-11-03T05:07:23.840Z,97.22
2017-11-03T05:08:23.845Z,96.75
2017-11-03T05:09:23.821Z,97.61
2017-11-03T05:10:23.806Z,97.32
2017-11-03T05:11:23.804Z,97.13
2017-11-03T05:12:23.794Z,97.32
2017-11-03T05:13:23.783Z,97.32
2017-11-03T05:14:23.451Z,97.32
2017-11-03T05:15:23.769Z,96.46
2017-11-03T05:16:23.755Z,96.65
2017-11-03T05:17:23.746Z,96.84
2017-11-03T05:18:23.736Z,96.56
2017-11-03T05:19:23.727Z,96.75
2017-11-03T05:20:23.723Z,96.84
2017-11-03T05:21:23.391Z,97.03
2017-11-03T05:22:23.702Z,96.84
2017-11-03T05:23:23.696Z,96.65
2017-11-03T05:24:23.685Z,97.03
2017-11-03T05:25:23.678Z,96.08
2017-11-03T05:26:23.667Z,96.94
2017-11-03T05:27:23.658Z,96.65
2017-11-03T05:28:23.651Z,97.03
2017-11-03T05:29:23.641Z,96.84
2017-11-03T05:30:23.635Z,96.94
2017-11-03T05:31:23.626Z,96.75
2017-11-03T05:32:23.618Z,96.84
2017-11-03T05:33:23.608Z,96.75
2017-11-03T05:34:23.595Z,96.75
2017-11-03T05:35:23.267Z,96.75
2017-11-03T05:36:23.582Z,97.03
2017-11-03T05:37:23.573Z,96.65
2017-11-03T05:38:23.561Z,96.65
2017-11-03T05:39:23.233Z,96.46
2017-11-03T05:40:23.797Z,97.03
2017-11-03T05:41:23.534Z,96.94
2017-11-03T05:42:23.525Z,96.84
2017-11-03T05:43:23.516Z,96.94
2017-11-03T05:44:23.510Z,96.65
2017-11-03T05:45:23.503Z,96.84
2017-11-03T05:46:23.493Z,96.84
2017-11-03T05:47:23.493Z,96.84
2017-11-03T05:48:23.473Z,96.75
2017-11-03T05:49:23.142Z,96.75
2017-11-03T05:50:23.458Z,96.46
2017-11-03T05:51:23.450Z,97.03
2017-11-03T05:52:23.118Z,96.84
2017-11-03T05:53:23.440Z,96.84
2017-11-03T05:54:23.431Z,96.56
2017-11-03T05:55:23.092Z,97.03
2017-11-03T05:56:23.405Z,96.84
2017-11-03T05:57:23.425Z,96.75
2017-11-03T05:58:23.396Z,96.46
2017-11-03T05:59:23.386Z,97.61
2017-11-03T06:00:23.371Z,97.13
2017-11-03T06:01:23.361Z,97.7
2017-11-03T06:02:23.364Z,97.13
2017-11-03T06:03:23.346Z,97.32
2017-11-03T06:04:23.346Z,97.51
2017-11-03T06:05:23.002Z,97.13
2017-11-03T06:06:23.316Z,97.13
2017-11-03T06:07:23.310Z,97.13
2017-11-03T06:08:22.978Z,96.84
2017-11-03T06:09:23.300Z,96.56
2017-11-03T06:10:22.962Z,96.46
2017-11-03T06:11:22.950Z,97.03
2017-11-03T06:12:22.944Z,96.84
2017-11-03T06:13:23.258Z,96.56
2017-11-03T06:14:23.250Z,96.84
2017-11-03T06:15:22.918Z,97.03
2017-11-03T06:16:22.909Z,96.75
2017-11-03T06:17:22.901Z,96.84
2017-11-03T06:18:23.222Z,96.65
2017-11-03T06:19:23.202Z,96.84
2017-11-03T06:20:22.873Z,96.75
2017-11-03T06:21:22.865Z,96.94
2017-11-03T06:22:22.856Z,96.94
2017-11-03T06:23:23.170Z,96.27
2017-11-03T06:24:22.838Z,96.56
2017-11-03T06:25:23.154Z,96.17
2017-11-03T06:26:23.145Z,96.84
2017-11-03T06:27:23.135Z,96.75
2017-11-03T06:28:22.804Z,96.65
2017-11-03T06:29:23.131Z,96.94
2017-11-03T06:30:23.119Z,96.84
2017-11-03T06:31:22.778Z,97.13
2017-11-03T06:32:22.773Z,97.13
2017-11-03T06:33:22.762Z,96.84
2017-11-03T06:34:23.071Z,96.94
2017-11-03T06:35:23.079Z,97.03
2017-11-03T06:36:23.062Z,97.03
2017-11-03T06:37:23.046Z,97.03
2017-11-03T06:38:23.051Z,96.46
2017-11-03T06:39:23.033Z,96.94
2017-11-03T06:40:23.020Z,96.08
2017-11-03T06:41:23.014Z,96.65
2017-11-03T06:42:22.681Z,97.03
2017-11-03T06:43:23.000Z,97.03
2017-11-03T06:44:22.990Z,96.27
2017-11-03T06:45:22.979Z,96.08
2017-11-03T06:46:22.975Z,96.27
2017-11-03T06:47:22.959Z,96.7
2017-11-03T06:48:22.959Z,96.94
2017-11-03T06:49:22.623Z,96.13
2017-11-03T06:50:22.937Z,96.8
2017-11-03T06:51:22.927Z,96.32
2017-11-03T06:52:22.922Z,96.13
2017-11-03T06:53:22.908Z,96.41
2017-11-03T06:54:22.903Z,96.41
2017-11-03T06:55:22.888Z,96.13
2017-11-03T06:56:22.884Z,96.22
2017-11-03T06:57:22.877Z,96.13
2017-11-03T06:58:22.869Z,96.22
2017-11-03T06:59:22.857Z,95.94
2017-11-03T07:00:22.846Z,96.13
2017-11-03T07:01:22.841Z,96.22
2017-11-03T07:02:22.832Z,96.13
2017-11-03T07:03:22.820Z,95.94
2017-11-03T07:04:22.492Z,96.03
2017-11-03T07:05:22.807Z,96.61
2017-11-03T07:06:22.795Z,96.22
2017-11-03T07:07:22.466Z,96.61
2017-11-03T07:08:22.784Z,96.22
2017-11-03T07:09:22.450Z,95.84
2017-11-03T07:10:22.764Z,95.75
2017-11-03T07:11:22.753Z,96.13
2017-11-03T07:12:22.423Z,96.41
2017-11-03T07:13:22.665Z,96.41
2017-11-03T07:14:22.727Z,96.13
2017-11-03T07:15:22.718Z,96.03
2017-11-03T07:16:22.718Z,95.94
2017-11-03T07:17:22.703Z,95.84
2017-11-03T07:18:22.694Z,96.32
2017-11-03T07:19:22.689Z,96.03
2017-11-03T07:20:22.682Z,96.51
2017-11-03T07:21:22.668Z,96.13
2017-11-03T07:22:22.337Z,95.75
2017-11-03T07:23:22.660Z,95.94
2017-11-03T07:24:22.661Z,96.13
2017-11-03T07:25:22.639Z,96.13
2017-11-03T07:26:22.629Z,95.94
2017-11-03T07:27:22.620Z,96.03
2017-11-03T07:28:22.611Z,95.75
2017-11-03T07:29:22.610Z,96.22
2017-11-03T07:30:22.594Z,96.13
2017-11-03T07:31:22.591Z,95.94
2017-11-03T07:32:22.584Z,95.84
2017-11-03T07:33:22.567Z,95.56
2017-11-03T07:34:22.564Z,96.03
2017-11-03T07:35:22.553Z,96.03
2017-11-03T07:36:22.221Z,95.56
2017-11-03T07:37:22.536Z,95.37
2017-11-03T07:38:22.531Z,95.27
2017-11-03T07:39:22.518Z,95.03
2017-11-03T07:40:22.518Z,94.98
2017-11-03T07:41:22.503Z,95.94
2017-11-03T07:42:22.496Z,95.56
2017-11-03T07:43:22.488Z,95.89
2017-11-03T07:44:22.406Z,95.79
2017-11-03T07:45:22.472Z,95.89
2017-11-03T07:46:22.804Z,95.89
2017-11-03T07:47:22.469Z,95.98
2017-11-03T07:48:22.448Z,95.79
2017-11-03T07:49:22.483Z,95.79
2017-11-03T07:50:22.429Z,95.89
2017-11-03T07:51:22.106Z,94.93
2017-11-03T07:52:22.416Z,95.32
2017-11-03T07:53:22.410Z,95.12
2017-11-03T07:54:22.403Z,94.74
2017-11-03T07:55:22.393Z,94.84
2017-11-03T07:56:22.386Z,95.41
2017-11-03T07:57:22.373Z,94.74
2017-11-03T07:58:22.395Z,95.22
2017-11-03T07:59:22.363Z,95.03
2017-11-03T08:00:22.352Z,95.32
2017-11-03T08:01:22.345Z,94.84
2017-11-03T08:02:22.338Z,94.93
2017-11-03T08:03:22.319Z,95.03
2017-11-03T08:04:22.314Z,95.12
2017-11-03T08:05:22.317Z,95.12
2017-11-03T08:06:22.311Z,94.93
2017-11-03T08:07:22.298Z,95.12
2017-11-03T08:08:21.969Z,94.84
2017-11-03T08:09:21.963Z,95.03
2017-11-03T08:10:22.275Z,94.89
2017-11-03T08:11:22.267Z,94.7
2017-11-03T08:12:22.263Z,94.98
2017-11-03T08:13:21.931Z,94.79
2017-11-03T08:14:22.249Z,95.17
2017-11-03T08:15:22.235Z,94.89
2017-11-03T08:16:21.914Z,94.79
2017-11-03T08:17:22.234Z,95.08
2017-11-03T08:18:22.216Z,94.41
2017-11-03T08:19:22.208Z,94.51
2017-11-03T08:20:22.202Z,94.89
2017-11-03T08:21:22.212Z,94.6
2017-11-03T08:22:22.186Z,94.79
2017-11-03T08:23:22.179Z,94.6
2017-11-03T08:24:22.168Z,94.7
2017-11-03T08:25:22.171Z,94.79
2017-11-03T08:26:22.155Z,94.7
2017-11-03T08:27:22.148Z,94.7
2017-11-03T08:28:22.139Z,94.79
2017-11-03T08:29:21.809Z,94.07
2017-11-03T08:30:22.133Z,93.74
2017-11-03T08:31:22.119Z,93.93
2017-11-03T08:32:22.111Z,93.93
2017-11-03T08:33:21.779Z,94.12
2017-11-03T08:34:22.102Z,93.88
2017-11-03T08:35:22.093Z,94.55
2017-11-03T08:36:22.080Z,94.07
2017-11-03T08:37:21.750Z,94.17
2017-11-03T08:38:22.065Z,94.07
2017-11-03T08:39:22.061Z,94.17
2017-11-03T08:40:22.060Z,94.46
2017-11-03T08:41:22.046Z,93.98
2017-11-03T08:42:22.041Z,93.7
2017-11-03T08:43:22.052Z,93.79
2017-11-03T08:44:22.040Z,93.41
2017-11-03T08:45:21.703Z,93.5
2017-11-03T08:46:22.010Z,93.7
2017-11-03T08:47:22.027Z,93.5
2017-11-03T08:48:22.001Z,93.12
2017-11-03T08:49:21.990Z,93.98
2017-11-03T08:50:21.999Z,93.6
2017-11-03T08:51:21.980Z,93.5
2017-11-03T08:52:21.975Z,92.64
2017-11-03T08:53:21.976Z,93.02
2017-11-03T08:54:21.956Z,93.31
2017-11-03T08:55:21.944Z,93.21
2017-11-03T08:56:21.942Z,93.79
2017-11-03T08:57:21.934Z,93.5
2017-11-03T08:58:21.929Z,93.16
2017-11-03T08:59:21.932Z,92.88
2017-11-03T09:00:21.589Z,93.07
2017-11-03T09:01:21.584Z,93.55
2017-11-03T09:02:21.919Z,92.3
2017-11-03T09:03:21.894Z,92.4
2017-11-03T09:04:21.899Z,92.11
2017-11-03T09:05:21.889Z,92.69
2017-11-03T09:06:21.893Z,92.4
2017-11-03T09:07:21.885Z,92.4
2017-11-03T09:08:21.875Z,92.79
2017-11-03T09:09:21.874Z,93.36
2017-11-03T09:10:21.845Z,93.65
2017-11-03T09:11:21.841Z,93.5
2017-11-03T09:12:21.847Z,93.4
2017-11-03T09:13:21.832Z,92.35
2017-11-03T09:14:21.825Z,92.83
2017-11-03T09:15:21.818Z,92.07
2017-11-03T09:16:21.806Z,91.88
2017-11-03T09:17:21.803Z,92.16
2017-11-03T09:18:21.797Z,92.64
2017-11-03T09:19:21.837Z,92.64
2017-11-03T09:20:21.785Z,91.92
2017-11-03T09:21:21.796Z,92.21
2017-11-03T09:22:21.460Z,92.21
2017-11-03T09:23:21.773Z,92.21
2017-11-03T09:24:21.761Z,92.02
2017-11-03T09:25:21.761Z,92.78
2017-11-03T09:26:21.756Z,92.3
2017-11-03T09:27:21.777Z,92.97
2017-11-03T09:28:21.988Z,92.16
2017-11-03T09:29:21.733Z,91.77
2017-11-03T09:30:21.726Z,90.34
2017-11-03T09:31:21.722Z,90.91
2017-11-03T09:32:21.758Z,91.68
2017-11-03T09:33:21.729Z,91.58
2017-11-03T09:34:21.705Z,91.01
2017-11-03T09:35:21.708Z,90.82
2017-11-03T09:36:21.396Z,90.91
2017-11-03T09:37:21.729Z,91.49
2017-11-03T09:38:21.701Z,91.49
2017-11-03T09:39:21.673Z,91.39
2017-11-03T09:40:21.674Z,90.44
2017-11-03T09:41:21.665Z,90.44
2017-11-03T09:42:21.656Z,89.67
2017-11-03T09:43:21.699Z,90.19
2017-11-03T09:44:21.646Z,89.23
2017-11-03T09:45:21.684Z,89.81
2017-11-03T09:46:21.640Z,89.81
2017-11-03T09:47:21.654Z,89.23
2017-11-03T09:48:21.628Z,89.04
2017-11-03T09:49:21.639Z,88.95
2017-11-03T09:50:21.624Z,89.52
2017-11-03T09:51:21.292Z,89.43
2017-11-03T09:52:21.609Z,89.43
2017-11-03T09:53:21.280Z,89.33
2017-11-03T09:54:21.594Z,88.56
2017-11-03T09:55:21.597Z,88.95
2017-11-03T09:56:21.590Z,89.14
2017-11-03T09:57:21.590Z,88.37
2017-11-03T09:58:21.604Z,88.47
2017-11-03T09:59:21.568Z,88.56
2017-11-03T10:00:21.568Z,88.56
2017-11-03T10:01:21.242Z,88.85
2017-11-03T10:02:21.556Z,89.23
2017-11-03T10:03:21.557Z,89.04
2017-11-03T10:04:21.555Z,89.04
2017-11-03T10:05:21.543Z,87.51
2017-11-03T10:06:21.546Z,87.13
2017-11-03T10:07:21.556Z,88.37
2017-11-03T10:08:21.523Z,87.76
2017-11-03T10:09:21.534Z,87.76
2017-11-03T10:10:21.559Z,87.18
2017-11-03T10:11:21.509Z,87.76
2017-11-03T10:12:21.503Z,87.95
2017-11-03T10:13:21.177Z,87.76
2017-11-03T10:14:21.492Z,88.43
2017-11-03T10:15:21.214Z,88.71
2017-11-03T10:16:21.499Z,88.9
2017-11-03T10:17:21.170Z,89.19
2017-11-03T10:18:21.482Z,88.33
2017-11-03T10:19:21.510Z,87.85
2017-11-03T10:20:21.398Z,87.18
2017-11-03T10:21:21.457Z,87.37
2017-11-03T10:22:21.457Z,87.18
2017-11-03T10:23:21.445Z,87.47
2017-11-03T10:24:21.463Z,86.8
2017-11-03T10:25:21.445Z,86.94
2017-11-03T10:26:21.136Z,87.76
2017-11-03T10:27:21.431Z,87.8
2017-11-03T10:28:21.435Z,87.8
2017-11-03T10:29:21.423Z,87.51
2017-11-03T10:30:21.424Z,86.94
2017-11-03T10:31:21.442Z,87.23
2017-11-03T10:32:21.424Z,86.36
2017-11-03T10:33:21.071Z,86.27
2017-11-03T10:34:21.412Z,84.55
2017-11-03T10:35:21.385Z,85.41
2017-11-03T10:36:21.435Z,85.88
2017-11-03T10:37:21.064Z,86.36
2017-11-03T10:38:21.371Z,86.17
2017-11-03T10:39:21.385Z,86.27
2017-11-03T10:40:21.368Z,86.46
2017-11-03T10:41:21.386Z,85.79
2017-11-03T10:42:21.028Z,85.12
2017-11-03T10:43:21.346Z,86.08
2017-11-03T10:44:21.018Z,86.36
2017-11-03T10:45:21.374Z,85.79
2017-11-03T10:46:21.332Z,86.08
2017-11-03T10:47:21.325Z,86.41
2017-11-03T10:48:21.001Z,85.12
2017-11-03T10:49:21.323Z,84.11
2017-11-03T10:50:21.321Z,84.78
2017-11-03T10:51:21.328Z,84.88
2017-11-03T10:52:20.983Z,84.58
2017-11-03T10:53:21.301Z,84.97
2017-11-03T10:54:21.291Z,84.2
2017-11-03T10:55:21.292Z,84.01
2017-11-03T10:56:21.298Z,83.92
2017-11-03T10:57:21.281Z,83.92
2017-11-03T10:58:21.294Z,84.3
2017-11-03T10:59:21.277Z,83.92
2017-11-03T11:00:21.290Z,83.92
2017-11-03T11:01:21.341Z,84.2
2017-11-03T11:02:21.256Z,83.92
2017-11-03T11:03:21.247Z,83.44
2017-11-03T11:04:21.247Z,83.53
2017-11-03T11:05:21.249Z,83.92
2017-11-03T11:06:21.236Z,84.2
2017-11-03T11:07:21.237Z,83.92
2017-11-03T11:08:21.236Z,83.92
2017-11-03T11:09:21.226Z,84.2
2017-11-03T11:10:21.225Z,83.72
2017-11-03T11:11:20.886Z,83.82
2017-11-03T11:12:21.233Z,83.34
2017-11-03T11:13:21.216Z,83.63
2017-11-03T11:14:20.885Z,83.44
2017-11-03T11:15:20.870Z,82.96
2017-11-03T11:16:21.194Z,82.86
2017-11-03T11:17:20.860Z,82.67
2017-11-03T11:18:20.854Z,82.57
2017-11-03T11:19:20.856Z,82.48
2017-11-03T11:20:20.848Z,82.38
2017-11-03T11:21:20.842Z,82.29
2017-11-03T11:22:21.157Z,82.71
2017-11-03T11:23:21.159Z,82.62
2017-11-03T11:24:21.152Z,82.32
2017-11-03T11:25:21.157Z,83.09
2017-11-03T11:26:20.819Z,82.32
2017-11-03T11:27:21.143Z,82.62
2017-11-03T11:28:21.130Z,82.62
2017-11-03T11:29:20.805Z,82.42
2017-11-03T11:30:20.800Z,82.62
2017-11-03T11:31:21.118Z,82.71
2017-11-03T11:32:21.112Z,82.42
2017-11-03T11:33:20.794Z,82.57
2017-11-03T11:34:21.118Z,83.05
2017-11-03T11:35:21.098Z,82.96
2017-11-03T11:36:21.104Z,82.86
2017-11-03T11:37:20.784Z,83.44
2017-11-03T11:38:21.099Z,83.63
2017-11-03T11:39:21.088Z,83.87
2017-11-03T11:40:21.095Z,83.92
2017-11-03T11:41:21.068Z,84.2
2017-11-03T11:42:21.075Z,83.92
2017-11-03T11:43:21.072Z,83.92
2017-11-03T11:44:21.065Z,84.01
2017-11-03T11:45:21.055Z,83.82
2017-11-03T11:46:21.056Z,83.34
2017-11-03T11:47:21.046Z,82.96
2017-11-03T11:48:21.038Z,82.76
2017-11-03T11:49:20.709Z,83.34
2017-11-03T11:50:21.042Z,83.25
2017-11-03T11:51:21.027Z,83.15
2017-11-03T11:52:21.018Z,82.96
2017-11-03T11:53:21.012Z,82.38
2017-11-03T11:54:21.011Z,82.48
2017-11-03T11:55:21.005Z,82.38
2017-11-03T11:56:20.997Z,82.48
2017-11-03T11:57:20.993Z,82.38
2017-11-03T11:58:20.994Z,82.48
2017-11-03T11:59:20.994Z,82.57
2017-11-03T12:00:20.981Z,82.63
2017-11-03T12:01:20.654Z,82.34
2017-11-03T12:02:20.971Z,82.73
2017-11-03T12:03:20.962Z,82.92
2017-11-03T12:04:20.979Z,83.11
2017-11-03T12:05:20.964Z,83.3
2017-11-03T12:06:20.952Z,83.97
2017-11-03T12:07:20.948Z,83.87
2017-11-03T12:08:20.942Z,83.78
2017-11-03T12:09:20.943Z,83.68
2017-11-03T12:10:20.937Z,84.74
2017-11-03T12:11:20.966Z,84.64
2017-11-03T12:12:20.924Z,84.55
2017-11-03T12:13:20.592Z,84.92
2017-11-03T12:14:20.939Z,84.26
2017-11-03T12:15:20.902Z,84.64
2017-11-03T12:16:20.577Z,84.74
2017-11-03T12:17:20.572Z,84.45
2017-11-03T12:18:20.892Z,84.83
2017-11-03T12:19:20.884Z,84.79
2017-11-03T12:20:20.878Z,85.46
2017-11-03T12:21:20.877Z,85.17
2017-11-03T12:22:20.876Z,85.55
2017-11-03T12:23:20.860Z,85.08
2017-11-03T12:24:20.885Z,85.94
2017-11-03T12:25:20.858Z,85.84
2017-11-03T12:26:20.848Z,85.75
2017-11-03T12:27:20.844Z,86.04
2017-11-03T12:28:20.512Z,85.55
2017-11-03T12:29:20.829Z,85.75
2017-11-03T12:30:20.832Z,85.84
2017-11-03T12:31:20.819Z,85.75
2017-11-03T12:32:20.835Z,85.65
2017-11-03T12:33:20.807Z,86.13
2017-11-03T12:34:20.812Z,86.04
2017-11-03T12:35:20.805Z,85.55
2017-11-03T12:36:20.798Z,85.84
2017-11-03T12:37:20.805Z,86.7
2017-11-03T12:38:20.865Z,86.13
2017-11-03T12:39:20.820Z,85.75
2017-11-03T12:40:20.783Z,86.22
2017-11-03T12:41:20.768Z,85.94
2017-11-03T12:42:20.764Z,85.79
2017-11-03T12:43:20.758Z,85.79
2017-11-03T12:44:20.425Z,85.69
2017-11-03T12:45:20.767Z,86.17
2017-11-03T12:46:20.445Z,85.88
2017-11-03T12:47:20.735Z,85.6
2017-11-03T12:48:20.420Z,86.36
2017-11-03T12:49:20.735Z,85.88
2017-11-03T12:50:20.717Z,85.79
2017-11-03T12:51:20.713Z,86.46
2017-11-03T12:52:20.708Z,85.98
2017-11-03T12:53:20.707Z,86.27